Terminal Aerodrome Forecast
Issued by NWS

Home | Current Version | Previous Version | Text Only | Print | Product List | Glossary On
Versions: 1 2 3 4 5 6 7 8 9 10 11 12 13 14 15 16 17 18 19
696
FTUS43 KSGF 301132 AAC
TAFBBG
TAF AMD
KBBG 301132Z 3012/0112 14008KT P6SM SCT006 OVC020
     FM301600 21007KT P6SM BKN025
     FM301700 21008KT P6SM BKN035
     FM301900 22008KT P6SM SCT045
     FM010000 VRB03KT P6SM FEW200=

USA.gov is the U.S. government's official web portal to all federal, state and local government web resources and services.